sensor_id;sensor_type;location;lat;lon;timestamp;P1;durP1;ratioP1;P2;durP2;ratioP2
25715;SDS011;13573;50.936;4.328;2023-04-08T00:01:26;15.40;;;7.73;;
25715;SDS011;13573;50.936;4.328;2023-04-08T00:03:52;22.67;;;8.40;;
25715;SDS011;13573;50.936;4.328;2023-04-08T00:06:19;15.70;;;7.20;;
25715;SDS011;13573;50.936;4.328;2023-04-08T00:08:46;22.07;;;8.13;;
25715;SDS011;13573;50.936;4.328;2023-04-08T00:11:13;19.50;;;8.07;;
25715;SDS011;13573;50.936;4.328;2023-04-08T00:13:39;22.77;;;8.30;;
25715;SDS011;13573;50.936;4.328;2023-04-08T00:16:06;25.77;;;8.47;;
25715;SDS011;13573;50.936;4.328;2023-04-08T00:18:32;25.03;;;7.93;;
25715;SDS011;13573;50.936;4.328;2023-04-08T00:21:00;23.03;;;7.70;;
25715;SDS011;13573;50.936;4.328;2023-04-08T00:23:26;24.83;;;8.03;;
25715;SDS011;13573;50.936;4.328;2023-04-08T00:25:53;22.50;;;7.67;;
25715;SDS011;13573;50.936;4.328;2023-04-08T00:28:20;23.57;;;8.20;;
25715;SDS011;13573;50.936;4.328;2023-04-08T00:30:46;23.37;;;7.60;;
25715;SDS011;13573;50.936;4.328;2023-04-08T00:33:13;17.90;;;6.57;;
25715;SDS011;13573;50.936;4.328;2023-04-08T00:35:40;23.70;;;8.27;;
25715;SDS011;13573;50.936;4.328;2023-04-08T00:38:07;25.50;;;8.23;;
25715;SDS011;13573;50.936;4.328;2023-04-08T00:40:33;20.13;;;7.73;;
25715;SDS011;13573;50.936;4.328;2023-04-08T00:43:00;25.40;;;7.83;;
25715;SDS011;13573;50.936;4.328;2023-04-08T00:45:27;22.00;;;7.93;;
25715;SDS011;13573;50.936;4.328;2023-04-08T00:47:53;25.50;;;8.27;;
25715;SDS011;13573;50.936;4.328;2023-04-08T00:50:21;20.83;;;7.93;;
25715;SDS011;13573;50.936;4.328;2023-04-08T00:52:48;23.37;;;8.10;;
25715;SDS011;13573;50.936;4.328;2023-04-08T00:55:14;25.57;;;8.07;;
25715;SDS011;13573;50.936;4.328;2023-04-08T00:57:41;23.53;;;8.43;;
25715;SDS011;13573;50.936;4.328;2023-04-08T01:00:09;28.67;;;8.10;;
25715;SDS011;13573;50.936;4.328;2023-04-08T01:02:42;33.80;;;8.83;;
25715;SDS011;13573;50.936;4.328;2023-04-08T01:05:13;29.53;;;8.97;;
25715;SDS011;13573;50.936;4.328;2023-04-08T01:07:44;24.47;;;7.83;;
25715;SDS011;13573;50.936;4.328;2023-04-08T01:10:16;23.27;;;9.93;;
25715;SDS011;13573;50.936;4.328;2023-04-08T01:13:03;27.40;;;8.30;;
25715;SDS011;13573;50.936;4.328;2023-04-08T01:15:30;32.40;;;9.60;;
25715;SDS011;13573;50.936;4.328;2023-04-08T01:17:58;25.73;;;8.93;;
25715;SDS011;13573;50.936;4.328;2023-04-08T01:20:27;26.40;;;8.93;;
25715;SDS011;13573;50.936;4.328;2023-04-08T01:23:05;34.70;;;9.07;;
25715;SDS011;13573;50.936;4.328;2023-04-08T01:25:34;23.97;;;8.50;;
25715;SDS011;13573;50.936;4.328;2023-04-08T01:28:03;25.37;;;8.53;;
25715;SDS011;13573;50.936;4.328;2023-04-08T01:30:33;33.23;;;9.50;;
25715;SDS011;13573;50.936;4.328;2023-04-08T01:33:01;21.50;;;8.37;;
25715;SDS011;13573;50.936;4.328;2023-04-08T01:35:29;22.37;;;8.13;;
25715;SDS011;13573;50.936;4.328;2023-04-08T01:37:57;24.67;;;8.63;;
25715;SDS011;13573;50.936;4.328;2023-04-08T01:40:24;21.20;;;8.40;;
25715;SDS011;13573;50.936;4.328;2023-04-08T01:42:53;30.43;;;9.77;;
25715;SDS011;13573;50.936;4.328;2023-04-08T01:45:22;25.10;;;9.70;;
25715;SDS011;13573;50.936;4.328;2023-04-08T01:47:50;31.80;;;9.10;;
25715;SDS011;13573;50.936;4.328;2023-04-08T01:50:18;27.17;;;9.27;;
25715;SDS011;13573;50.936;4.328;2023-04-08T01:52:46;23.07;;;9.50;;
25715;SDS011;13573;50.936;4.328;2023-04-08T01:55:15;24.37;;;10.87;;
25715;SDS011;13573;50.936;4.328;2023-04-08T01:57:43;25.83;;;9.73;;
25715;SDS011;13573;50.936;4.328;2023-04-08T02:00:10;31.73;;;10.23;;
25715;SDS011;13573;50.936;4.328;2023-04-08T02:02:40;24.37;;;10.80;;
25715;SDS011;13573;50.936;4.328;2023-04-08T02:05:07;26.77;;;10.43;;
25715;SDS011;13573;50.936;4.328;2023-04-08T02:07:34;26.23;;;11.60;;
25715;SDS011;13573;50.936;4.328;2023-04-08T02:10:01;34.47;;;11.10;;
25715;SDS011;13573;50.936;4.328;2023-04-08T02:12:28;30.70;;;11.23;;
25715;SDS011;13573;50.936;4.328;2023-04-08T02:14:55;32.57;;;12.17;;
25715;SDS011;13573;50.936;4.328;2023-04-08T02:17:28;29.47;;;11.77;;
25715;SDS011;13573;50.936;4.328;2023-04-08T02:20:05;36.43;;;12.33;;
25715;SDS011;13573;50.936;4.328;2023-04-08T02:22:39;27.60;;;10.57;;
25715;SDS011;13573;50.936;4.328;2023-04-08T02:25:12;26.10;;;11.83;;
25715;SDS011;13573;50.936;4.328;2023-04-08T02:27:39;38.37;;;13.30;;
25715;SDS011;13573;50.936;4.328;2023-04-08T02:30:07;34.83;;;12.67;;
25715;SDS011;13573;50.936;4.328;2023-04-08T02:32:35;23.67;;;11.80;;
25715;SDS011;13573;50.936;4.328;2023-04-08T02:35:02;36.10;;;13.07;;
25715;SDS011;13573;50.936;4.328;2023-04-08T02:37:30;32.43;;;13.27;;
25715;SDS011;13573;50.936;4.328;2023-04-08T02:39:57;30.97;;;13.40;;
25715;SDS011;13573;50.936;4.328;2023-04-08T02:42:25;25.73;;;12.03;;
25715;SDS011;13573;50.936;4.328;2023-04-08T02:44:51;25.57;;;12.73;;
25715;SDS011;13573;50.936;4.328;2023-04-08T02:47:18;26.37;;;12.33;;
25715;SDS011;13573;50.936;4.328;2023-04-08T02:49:44;33.67;;;13.80;;
25715;SDS011;13573;50.936;4.328;2023-04-08T02:52:12;32.47;;;14.53;;
25715;SDS011;13573;50.936;4.328;2023-04-08T02:54:38;38.97;;;14.53;;
25715;SDS011;13573;50.936;4.328;2023-04-08T02:57:04;35.27;;;15.20;;
25715;SDS011;13573;50.936;4.328;2023-04-08T02:59:32;43.50;;;14.83;;
25715;SDS011;13573;50.936;4.328;2023-04-08T03:01:58;41.23;;;16.27;;
25715;SDS011;13573;50.936;4.328;2023-04-08T03:04:25;41.23;;;15.90;;
25715;SDS011;13573;50.936;4.328;2023-04-08T03:06:51;35.40;;;15.97;;
25715;SDS011;13573;50.936;4.328;2023-04-08T03:09:18;41.70;;;15.00;;
25715;SDS011;13573;50.936;4.328;2023-04-08T03:11:45;39.23;;;15.03;;
25715;SDS011;13573;50.936;4.328;2023-04-08T03:14:13;39.83;;;15.53;;
25715;SDS011;13573;50.936;4.328;2023-04-08T03:16:41;41.77;;;15.13;;
25715;SDS011;13573;50.936;4.328;2023-04-08T03:19:07;35.83;;;14.33;;
25715;SDS011;13573;50.936;4.328;2023-04-08T03:21:33;34.27;;;15.53;;
25715;SDS011;13573;50.936;4.328;2023-04-08T03:24:00;56.67;;;17.83;;
25715;SDS011;13573;50.936;4.328;2023-04-08T03:26:27;39.33;;;16.00;;
25715;SDS011;13573;50.936;4.328;2023-04-08T03:28:54;39.17;;;15.23;;
25715;SDS011;13573;50.936;4.328;2023-04-08T03:31:21;42.83;;;16.47;;
25715;SDS011;13573;50.936;4.328;2023-04-08T03:33:47;33.50;;;14.00;;
25715;SDS011;13573;50.936;4.328;2023-04-08T03:36:14;34.33;;;14.83;;
25715;SDS011;13573;50.936;4.328;2023-04-08T03:38:41;34.10;;;14.73;;
25715;SDS011;13573;50.936;4.328;2023-04-08T03:41:07;31.23;;;15.13;;
25715;SDS011;13573;50.936;4.328;2023-04-08T03:43:34;37.53;;;15.67;;
25715;SDS011;13573;50.936;4.328;2023-04-08T03:46:02;51.03;;;17.27;;
25715;SDS011;13573;50.936;4.328;2023-04-08T03:48:29;42.73;;;15.77;;
25715;SDS011;13573;50.936;4.328;2023-04-08T03:50:57;43.97;;;17.03;;
25715;SDS011;13573;50.936;4.328;2023-04-08T03:53:24;47.53;;;17.37;;
25715;SDS011;13573;50.936;4.328;2023-04-08T03:55:52;46.40;;;17.47;;
25715;SDS011;13573;50.936;4.328;2023-04-08T03:58:19;39.97;;;16.37;;
25715;SDS011;13573;50.936;4.328;2023-04-08T04:00:46;43.63;;;17.77;;
25715;SDS011;13573;50.936;4.328;2023-04-08T04:03:12;36.90;;;17.73;;
25715;SDS011;13573;50.936;4.328;2023-04-08T04:05:39;42.60;;;17.10;;
25715;SDS011;13573;50.936;4.328;2023-04-08T04:08:06;44.97;;;17.23;;
25715;SDS011;13573;50.936;4.328;2023-04-08T04:10:34;38.10;;;16.50;;
25715;SDS011;13573;50.936;4.328;2023-04-08T04:13:00;59.90;;;17.13;;
25715;SDS011;13573;50.936;4.328;2023-04-08T04:15:27;47.20;;;17.73;;
25715;SDS011;13573;50.936;4.328;2023-04-08T04:17:54;36.30;;;16.60;;
25715;SDS011;13573;50.936;4.328;2023-04-08T04:20:20;41.60;;;16.70;;
25715;SDS011;13573;50.936;4.328;2023-04-08T04:22:47;40.33;;;15.73;;
25715;SDS011;13573;50.936;4.328;2023-04-08T04:25:14;44.93;;;16.70;;
25715;SDS011;13573;50.936;4.328;2023-04-08T04:27:40;42.73;;;17.07;;
25715;SDS011;13573;50.936;4.328;2023-04-08T04:30:07;41.63;;;17.83;;
25715;SDS011;13573;50.936;4.328;2023-04-08T04:32:35;39.70;;;16.93;;
25715;SDS011;13573;50.936;4.328;2023-04-08T04:35:01;40.27;;;17.27;;
25715;SDS011;13573;50.936;4.328;2023-04-08T04:37:28;40.03;;;17.53;;
25715;SDS011;13573;50.936;4.328;2023-04-08T04:39:54;54.03;;;18.67;;
25715;SDS011;13573;50.936;4.328;2023-04-08T04:42:22;53.97;;;19.43;;
25715;SDS011;13573;50.936;4.328;2023-04-08T04:44:48;46.17;;;18.07;;
25715;SDS011;13573;50.936;4.328;2023-04-08T04:47:15;43.67;;;17.47;;
25715;SDS011;13573;50.936;4.328;2023-04-08T04:49:42;42.73;;;18.37;;
25715;SDS011;13573;50.936;4.328;2023-04-08T04:52:08;49.03;;;17.77;;
25715;SDS011;13573;50.936;4.328;2023-04-08T04:54:35;52.00;;;20.83;;
25715;SDS011;13573;50.936;4.328;2023-04-08T04:57:02;44.73;;;18.33;;
25715;SDS011;13573;50.936;4.328;2023-04-08T04:59:28;50.80;;;19.90;;
25715;SDS011;13573;50.936;4.328;2023-04-08T05:01:55;48.00;;;18.63;;
25715;SDS011;13573;50.936;4.328;2023-04-08T05:04:23;42.00;;;18.23;;
25715;SDS011;13573;50.936;4.328;2023-04-08T05:06:51;50.47;;;20.37;;
25715;SDS011;13573;50.936;4.328;2023-04-08T05:09:17;49.33;;;20.30;;
25715;SDS011;13573;50.936;4.328;2023-04-08T05:11:44;54.30;;;20.60;;
25715;SDS011;13573;50.936;4.328;2023-04-08T05:14:10;52.43;;;19.77;;
25715;SDS011;13573;50.936;4.328;2023-04-08T05:16:37;43.67;;;19.40;;
25715;SDS011;13573;50.936;4.328;2023-04-08T05:19:04;51.43;;;20.00;;
25715;SDS011;13573;50.936;4.328;2023-04-08T05:21:31;44.10;;;18.47;;
25715;SDS011;13573;50.936;4.328;2023-04-08T05:23:57;49.97;;;19.40;;
25715;SDS011;13573;50.936;4.328;2023-04-08T05:26:24;48.93;;;19.93;;
25715;SDS011;13573;50.936;4.328;2023-04-08T05:28:51;49.30;;;20.10;;
25715;SDS011;13573;50.936;4.328;2023-04-08T05:31:17;50.97;;;19.50;;
25715;SDS011;13573;50.936;4.328;2023-04-08T05:33:45;53.00;;;19.63;;
25715;SDS011;13573;50.936;4.328;2023-04-08T05:36:12;54.33;;;19.77;;
25715;SDS011;13573;50.936;4.328;2023-04-08T05:38:39;43.60;;;18.67;;
25715;SDS011;13573;50.936;4.328;2023-04-08T05:41:09;49.70;;;19.50;;
25715;SDS011;13573;50.936;4.328;2023-04-08T05:43:35;42.90;;;17.90;;
25715;SDS011;13573;50.936;4.328;2023-04-08T05:46:06;46.30;;;19.53;;
25715;SDS011;13573;50.936;4.328;2023-04-08T05:48:35;43.43;;;18.93;;
25715;SDS011;13573;50.936;4.328;2023-04-08T05:51:01;53.17;;;19.93;;
25715;SDS011;13573;50.936;4.328;2023-04-08T05:53:28;50.90;;;19.73;;
25715;SDS011;13573;50.936;4.328;2023-04-08T05:55:55;47.63;;;18.97;;
25715;SDS011;13573;50.936;4.328;2023-04-08T05:58:22;43.83;;;17.80;;
25715;SDS011;13573;50.936;4.328;2023-04-08T06:00:48;51.33;;;18.20;;
25715;SDS011;13573;50.936;4.328;2023-04-08T06:03:15;41.10;;;18.13;;
25715;SDS011;13573;50.936;4.328;2023-04-08T06:05:42;39.60;;;17.53;;
25715;SDS011;13573;50.936;4.328;2023-04-08T06:08:08;44.77;;;18.33;;
25715;SDS011;13573;50.936;4.328;2023-04-08T06:10:35;52.87;;;20.73;;
25715;SDS011;13573;50.936;4.328;2023-04-08T06:13:02;46.67;;;19.37;;
25715;SDS011;13573;50.936;4.328;2023-04-08T06:15:29;45.13;;;18.97;;
25715;SDS011;13573;50.936;4.328;2023-04-08T06:17:57;40.40;;;18.27;;
25715;SDS011;13573;50.936;4.328;2023-04-08T06:20:24;41.63;;;18.27;;
25715;SDS011;13573;50.936;4.328;2023-04-08T06:22:51;47.47;;;19.83;;
25715;SDS011;13573;50.936;4.328;2023-04-08T06:25:17;39.33;;;17.20;;
25715;SDS011;13573;50.936;4.328;2023-04-08T06:27:44;35.10;;;18.17;;
25715;SDS011;13573;50.936;4.328;2023-04-08T06:30:11;46.77;;;18.67;;
25715;SDS011;13573;50.936;4.328;2023-04-08T06:32:38;41.00;;;17.57;;
25715;SDS011;13573;50.936;4.328;2023-04-08T06:35:05;40.93;;;17.80;;
25715;SDS011;13573;50.936;4.328;2023-04-08T06:37:32;40.03;;;17.20;;
25715;SDS011;13573;50.936;4.328;2023-04-08T06:40:00;51.23;;;18.93;;
25715;SDS011;13573;50.936;4.328;2023-04-08T06:42:28;48.83;;;19.43;;
25715;SDS011;13573;50.936;4.328;2023-04-08T06:44:55;40.20;;;17.07;;
25715;SDS011;13573;50.936;4.328;2023-04-08T06:47:23;47.63;;;19.27;;
25715;SDS011;13573;50.936;4.328;2023-04-08T06:49:49;34.03;;;16.70;;
25715;SDS011;13573;50.936;4.328;2023-04-08T06:52:16;31.57;;;16.50;;
25715;SDS011;13573;50.936;4.328;2023-04-08T06:54:43;34.00;;;17.00;;
25715;SDS011;13573;50.936;4.328;2023-04-08T06:57:09;39.63;;;17.03;;
25715;SDS011;13573;50.936;4.328;2023-04-08T06:59:36;39.17;;;18.30;;
25715;SDS011;13573;50.936;4.328;2023-04-08T07:02:03;34.40;;;15.37;;
25715;SDS011;13573;50.936;4.328;2023-04-08T07:04:31;34.10;;;14.83;;
25715;SDS011;13573;50.936;4.328;2023-04-08T07:06:58;34.80;;;14.83;;
25715;SDS011;13573;50.936;4.328;2023-04-08T07:09:25;30.33;;;14.90;;
25715;SDS011;13573;50.936;4.328;2023-04-08T07:11:52;33.13;;;15.90;;
25715;SDS011;13573;50.936;4.328;2023-04-08T07:14:18;27.00;;;14.03;;
25715;SDS011;13573;50.936;4.328;2023-04-08T07:16:45;26.50;;;13.50;;
25715;SDS011;13573;50.936;4.328;2023-04-08T07:19:11;24.73;;;12.40;;
25715;SDS011;13573;50.936;4.328;2023-04-08T07:21:38;23.33;;;11.43;;
25715;SDS011;13573;50.936;4.328;2023-04-08T07:24:06;23.70;;;12.60;;
25715;SDS011;13573;50.936;4.328;2023-04-08T07:26:32;22.97;;;12.67;;
25715;SDS011;13573;50.936;4.328;2023-04-08T07:28:59;24.03;;;11.93;;
25715;SDS011;13573;50.936;4.328;2023-04-08T07:31:26;20.90;;;12.20;;
25715;SDS011;13573;50.936;4.328;2023-04-08T07:33:53;26.53;;;12.87;;
25715;SDS011;13573;50.936;4.328;2023-04-08T07:36:20;25.90;;;12.77;;
25715;SDS011;13573;50.936;4.328;2023-04-08T07:38:47;28.13;;;13.50;;
25715;SDS011;13573;50.936;4.328;2023-04-08T07:41:13;25.43;;;12.90;;
25715;SDS011;13573;50.936;4.328;2023-04-08T07:43:40;23.03;;;13.27;;
25715;SDS011;13573;50.936;4.328;2023-04-08T07:46:07;29.83;;;13.83;;
25715;SDS011;13573;50.936;4.328;2023-04-08T07:48:34;27.63;;;13.97;;
25715;SDS011;13573;50.936;4.328;2023-04-08T07:51:02;32.13;;;15.67;;
25715;SDS011;13573;50.936;4.328;2023-04-08T07:53:30;28.87;;;14.93;;
25715;SDS011;13573;50.936;4.328;2023-04-08T07:55:58;27.17;;;14.53;;
25715;SDS011;13573;50.936;4.328;2023-04-08T07:58:25;23.27;;;13.07;;
25715;SDS011;13573;50.936;4.328;2023-04-08T08:00:52;33.33;;;14.90;;
25715;SDS011;13573;50.936;4.328;2023-04-08T08:03:18;32.73;;;14.93;;
25715;SDS011;13573;50.936;4.328;2023-04-08T08:05:45;25.50;;;14.67;;
25715;SDS011;13573;50.936;4.328;2023-04-08T08:08:12;36.43;;;14.37;;
25715;SDS011;13573;50.936;4.328;2023-04-08T08:10:38;28.03;;;13.37;;
25715;SDS011;13573;50.936;4.328;2023-04-08T08:13:06;29.10;;;14.07;;
25715;SDS011;13573;50.936;4.328;2023-04-08T08:15:33;26.13;;;13.80;;
25715;SDS011;13573;50.936;4.328;2023-04-08T08:18:00;31.97;;;15.50;;
25715;SDS011;13573;50.936;4.328;2023-04-08T08:20:27;32.90;;;14.03;;
25715;SDS011;13573;50.936;4.328;2023-04-08T08:22:53;32.43;;;14.03;;
25715;SDS011;13573;50.936;4.328;2023-04-08T08:25:20;28.40;;;14.60;;
25715;SDS011;13573;50.936;4.328;2023-04-08T08:27:47;36.80;;;16.17;;
25715;SDS011;13573;50.936;4.328;2023-04-08T08:30:14;32.67;;;15.77;;
25715;SDS011;13573;50.936;4.328;2023-04-08T08:32:40;30.80;;;15.57;;
25715;SDS011;13573;50.936;4.328;2023-04-08T08:35:08;27.83;;;16.00;;
25715;SDS011;13573;50.936;4.328;2023-04-08T08:37:34;28.80;;;14.53;;
25715;SDS011;13573;50.936;4.328;2023-04-08T08:40:01;32.07;;;16.13;;
25715;SDS011;13573;50.936;4.328;2023-04-08T08:42:28;32.40;;;15.77;;
25715;SDS011;13573;50.936;4.328;2023-04-08T08:44:55;32.60;;;16.53;;
25715;SDS011;13573;50.936;4.328;2023-04-08T08:47:22;29.50;;;14.90;;
25715;SDS011;13573;50.936;4.328;2023-04-08T08:49:48;26.20;;;14.70;;
25715;SDS011;13573;50.936;4.328;2023-04-08T08:52:16;29.33;;;15.90;;
25715;SDS011;13573;50.936;4.328;2023-04-08T08:54:44;35.37;;;16.70;;
25715;SDS011;13573;50.936;4.328;2023-04-08T08:57:15;30.07;;;16.47;;
25715;SDS011;13573;50.936;4.328;2023-04-08T08:59:42;32.43;;;16.57;;
25715;SDS011;13573;50.936;4.328;2023-04-08T09:04:55;36.47;;;16.70;;
25715;SDS011;13573;50.936;4.328;2023-04-08T09:07:13;34.40;;;16.70;;
25715;SDS011;13573;50.936;4.328;2023-04-08T09:12:16;31.97;;;16.80;;
25715;SDS011;13573;50.936;4.328;2023-04-08T09:14:43;31.50;;;17.33;;
25715;SDS011;13573;50.936;4.328;2023-04-08T09:17:09;28.83;;;15.90;;
25715;SDS011;13573;50.936;4.328;2023-04-08T09:19:36;30.33;;;15.00;;
25715;SDS011;13573;50.936;4.328;2023-04-08T09:22:05;31.97;;;15.40;;
25715;SDS011;13573;50.936;4.328;2023-04-08T09:24:34;28.13;;;15.67;;
25715;SDS011;13573;50.936;4.328;2023-04-08T09:27:03;28.60;;;16.03;;
25715;SDS011;13573;50.936;4.328;2023-04-08T09:29:31;28.33;;;16.57;;
25715;SDS011;13573;50.936;4.328;2023-04-08T09:31:59;36.87;;;17.03;;
25715;SDS011;13573;50.936;4.328;2023-04-08T09:34:26;30.67;;;16.47;;
25715;SDS011;13573;50.936;4.328;2023-04-08T09:36:54;30.40;;;17.23;;
25715;SDS011;13573;50.936;4.328;2023-04-08T09:39:21;31.87;;;17.00;;
25715;SDS011;13573;50.936;4.328;2023-04-08T09:41:48;30.60;;;17.13;;
25715;SDS011;13573;50.936;4.328;2023-04-08T09:44:16;29.13;;;16.27;;
25715;SDS011;13573;50.936;4.328;2023-04-08T09:49:36;29.43;;;16.47;;
25715;SDS011;13573;50.936;4.328;2023-04-08T09:54:53;25.30;;;14.30;;
25715;SDS011;13573;50.936;4.328;2023-04-08T09:57:27;27.23;;;14.10;;
25715;SDS011;13573;50.936;4.328;2023-04-08T10:00:14;28.43;;;15.70;;
25715;SDS011;13573;50.936;4.328;2023-04-08T10:02:48;32.87;;;15.33;;
25715;SDS011;13573;50.936;4.328;2023-04-08T10:05:21;31.77;;;16.10;;
25715;SDS011;13573;50.936;4.328;2023-04-08T10:07:49;25.67;;;15.60;;
25715;SDS011;13573;50.936;4.328;2023-04-08T10:10:16;25.37;;;14.37;;
25715;SDS011;13573;50.936;4.328;2023-04-08T10:12:44;24.67;;;14.93;;
25715;SDS011;13573;50.936;4.328;2023-04-08T10:17:43;32.20;;;17.10;;
25715;SDS011;13573;50.936;4.328;2023-04-08T10:20:39;29.93;;;16.17;;
25715;SDS011;13573;50.936;4.328;2023-04-08T10:22:55;28.50;;;15.90;;
25715;SDS011;13573;50.936;4.328;2023-04-08T10:30:52;29.10;;;14.77;;
25715;SDS011;13573;50.936;4.328;2023-04-08T10:33:20;23.50;;;13.90;;
25715;SDS011;13573;50.936;4.328;2023-04-08T10:35:53;24.63;;;14.83;;
25715;SDS011;13573;50.936;4.328;2023-04-08T10:38:22;20.90;;;13.20;;
25715;SDS011;13573;50.936;4.328;2023-04-08T10:40:50;22.40;;;14.17;;
25715;SDS011;13573;50.936;4.328;2023-04-08T10:43:18;28.43;;;14.37;;
25715;SDS011;13573;50.936;4.328;2023-04-08T10:45:45;28.27;;;16.17;;
25715;SDS011;13573;50.936;4.328;2023-04-08T10:48:15;24.10;;;14.63;;
25715;SDS011;13573;50.936;4.328;2023-04-08T10:50:43;28.43;;;14.93;;
25715;SDS011;13573;50.936;4.328;2023-04-08T10:53:12;27.40;;;14.90;;
25715;SDS011;13573;50.936;4.328;2023-04-08T10:55:38;23.10;;;14.73;;
25715;SDS011;13573;50.936;4.328;2023-04-08T10:58:06;25.47;;;15.40;;
25715;SDS011;13573;50.936;4.328;2023-04-08T11:00:34;26.47;;;13.83;;
25715;SDS011;13573;50.936;4.328;2023-04-08T11:03:03;25.97;;;14.67;;
25715;SDS011;13573;50.936;4.328;2023-04-08T11:05:31;23.10;;;14.00;;
25715;SDS011;13573;50.936;4.328;2023-04-08T11:07:58;25.70;;;14.97;;
25715;SDS011;13573;50.936;4.328;2023-04-08T11:10:26;25.80;;;14.77;;
25715;SDS011;13573;50.936;4.328;2023-04-08T11:12:53;34.03;;;19.90;;
25715;SDS011;13573;50.936;4.328;2023-04-08T11:15:21;28.03;;;16.30;;
25715;SDS011;13573;50.936;4.328;2023-04-08T11:17:50;24.73;;;14.10;;
25715;SDS011;13573;50.936;4.328;2023-04-08T11:20:18;28.37;;;15.07;;
25715;SDS011;13573;50.936;4.328;2023-04-08T11:22:46;23.50;;;15.53;;
25715;SDS011;13573;50.936;4.328;2023-04-08T11:25:12;28.33;;;16.47;;
25715;SDS011;13573;50.936;4.328;2023-04-08T11:27:39;27.40;;;15.23;;
25715;SDS011;13573;50.936;4.328;2023-04-08T11:30:06;26.23;;;15.50;;
25715;SDS011;13573;50.936;4.328;2023-04-08T11:32:36;22.70;;;14.33;;
25715;SDS011;13573;50.936;4.328;2023-04-08T11:35:04;27.87;;;14.57;;
25715;SDS011;13573;50.936;4.328;2023-04-08T11:37:37;24.57;;;14.00;;
25715;SDS011;13573;50.936;4.328;2023-04-08T11:40:08;23.73;;;13.37;;
25715;SDS011;13573;50.936;4.328;2023-04-08T11:42:35;23.63;;;13.30;;
25715;SDS011;13573;50.936;4.328;2023-04-08T11:45:09;22.73;;;14.40;;
25715;SDS011;13573;50.936;4.328;2023-04-08T11:47:37;24.00;;;13.03;;
25715;SDS011;13573;50.936;4.328;2023-04-08T11:50:04;21.87;;;13.33;;
25715;SDS011;13573;50.936;4.328;2023-04-08T11:57:49;20.53;;;11.97;;
25715;SDS011;13573;50.936;4.328;2023-04-08T12:00:18;17.70;;;10.47;;
25715;SDS011;13573;50.936;4.328;2023-04-08T12:02:44;21.27;;;11.63;;
25715;SDS011;13573;50.936;4.328;2023-04-08T12:05:13;16.07;;;10.30;;
25715;SDS011;13573;50.936;4.328;2023-04-08T12:07:41;15.97;;;10.70;;
25715;SDS011;13573;50.936;4.328;2023-04-08T12:10:09;18.97;;;10.23;;
25715;SDS011;13573;50.936;4.328;2023-04-08T12:12:36;14.67;;;9.23;;
25715;SDS011;13573;50.936;4.328;2023-04-08T12:15:03;13.03;;;7.90;;
25715;SDS011;13573;50.936;4.328;2023-04-08T12:17:30;16.70;;;8.80;;
25715;SDS011;13573;50.936;4.328;2023-04-08T12:19:57;14.53;;;8.97;;
25715;SDS011;13573;50.936;4.328;2023-04-08T12:22:24;17.40;;;10.07;;
25715;SDS011;13573;50.936;4.328;2023-04-08T12:24:50;13.30;;;8.10;;
25715;SDS011;13573;50.936;4.328;2023-04-08T12:27:17;15.07;;;8.73;;
25715;SDS011;13573;50.936;4.328;2023-04-08T12:29:44;13.90;;;8.77;;
25715;SDS011;13573;50.936;4.328;2023-04-08T12:32:11;14.50;;;8.97;;
25715;SDS011;13573;50.936;4.328;2023-04-08T12:34:38;14.07;;;8.83;;
25715;SDS011;13573;50.936;4.328;2023-04-08T12:37:04;14.97;;;8.80;;
25715;SDS011;13573;50.936;4.328;2023-04-08T12:39:31;13.20;;;7.83;;
25715;SDS011;13573;50.936;4.328;2023-04-08T12:41:57;12.50;;;8.33;;
25715;SDS011;13573;50.936;4.328;2023-04-08T12:44:24;13.50;;;8.90;;
25715;SDS011;13573;50.936;4.328;2023-04-08T12:46:51;14.83;;;8.90;;
25715;SDS011;13573;50.936;4.328;2023-04-08T12:49:17;17.53;;;10.63;;
25715;SDS011;13573;50.936;4.328;2023-04-08T12:51:44;13.37;;;9.00;;
25715;SDS011;13573;50.936;4.328;2023-04-08T12:54:10;15.87;;;10.33;;
25715;SDS011;13573;50.936;4.328;2023-04-08T12:56:37;17.90;;;10.57;;
25715;SDS011;13573;50.936;4.328;2023-04-08T12:59:04;18.30;;;10.63;;
25715;SDS011;13573;50.936;4.328;2023-04-08T13:01:30;19.63;;;11.13;;
25715;SDS011;13573;50.936;4.328;2023-04-08T13:03:57;21.13;;;11.37;;
25715;SDS011;13573;50.936;4.328;2023-04-08T13:06:24;25.03;;;13.50;;
25715;SDS011;13573;50.936;4.328;2023-04-08T13:08:52;24.90;;;14.03;;
25715;SDS011;13573;50.936;4.328;2023-04-08T13:11:19;23.37;;;13.90;;
25715;SDS011;13573;50.936;4.328;2023-04-08T13:13:45;20.97;;;12.80;;
25715;SDS011;13573;50.936;4.328;2023-04-08T13:16:12;21.50;;;12.10;;
25715;SDS011;13573;50.936;4.328;2023-04-08T13:18:40;21.27;;;12.40;;
25715;SDS011;13573;50.936;4.328;2023-04-08T13:21:07;24.57;;;14.93;;
25715;SDS011;13573;50.936;4.328;2023-04-08T13:23:34;21.20;;;13.87;;
25715;SDS011;13573;50.936;4.328;2023-04-08T13:26:01;22.13;;;13.87;;
25715;SDS011;13573;50.936;4.328;2023-04-08T13:28:28;22.23;;;13.53;;
25715;SDS011;13573;50.936;4.328;2023-04-08T13:30:54;23.63;;;14.43;;
25715;SDS011;13573;50.936;4.328;2023-04-08T13:33:21;17.83;;;12.33;;
25715;SDS011;13573;50.936;4.328;2023-04-08T13:35:48;21.57;;;13.60;;
25715;SDS011;13573;50.936;4.328;2023-04-08T13:38:15;21.67;;;13.23;;
25715;SDS011;13573;50.936;4.328;2023-04-08T13:40:41;18.23;;;12.33;;
25715;SDS011;13573;50.936;4.328;2023-04-08T13:43:09;19.00;;;12.60;;
25715;SDS011;13573;50.936;4.328;2023-04-08T13:45:37;24.33;;;13.30;;
25715;SDS011;13573;50.936;4.328;2023-04-08T13:48:05;19.67;;;12.70;;
25715;SDS011;13573;50.936;4.328;2023-04-08T13:50:32;21.10;;;13.00;;
25715;SDS011;13573;50.936;4.328;2023-04-08T13:52:58;20.93;;;13.20;;
25715;SDS011;13573;50.936;4.328;2023-04-08T13:55:25;20.50;;;13.27;;
25715;SDS011;13573;50.936;4.328;2023-04-08T13:57:51;23.57;;;13.50;;
25715;SDS011;13573;50.936;4.328;2023-04-08T14:00:18;18.83;;;12.17;;
25715;SDS011;13573;50.936;4.328;2023-04-08T14:02:45;22.27;;;13.93;;
25715;SDS011;13573;50.936;4.328;2023-04-08T14:05:12;17.17;;;12.30;;
25715;SDS011;13573;50.936;4.328;2023-04-08T14:07:38;18.67;;;12.70;;
25715;SDS011;13573;50.936;4.328;2023-04-08T14:10:05;22.23;;;14.27;;
25715;SDS011;13573;50.936;4.328;2023-04-08T14:12:33;22.70;;;13.57;;
25715;SDS011;13573;50.936;4.328;2023-04-08T14:14:59;22.57;;;14.80;;
25715;SDS011;13573;50.936;4.328;2023-04-08T14:17:27;21.20;;;13.83;;
25715;SDS011;13573;50.936;4.328;2023-04-08T14:19:54;23.20;;;13.30;;
25715;SDS011;13573;50.936;4.328;2023-04-08T14:22:20;24.63;;;14.23;;
25715;SDS011;13573;50.936;4.328;2023-04-08T14:24:47;24.93;;;14.10;;
25715;SDS011;13573;50.936;4.328;2023-04-08T14:27:14;26.13;;;14.23;;
25715;SDS011;13573;50.936;4.328;2023-04-08T14:29:40;26.40;;;14.20;;
25715;SDS011;13573;50.936;4.328;2023-04-08T14:32:07;21.80;;;13.83;;
25715;SDS011;13573;50.936;4.328;2023-04-08T14:34:33;25.20;;;14.77;;
25715;SDS011;13573;50.936;4.328;2023-04-08T14:37:00;28.10;;;15.57;;
25715;SDS011;13573;50.936;4.328;2023-04-08T14:39:27;29.07;;;15.67;;
25715;SDS011;13573;50.936;4.328;2023-04-08T14:41:54;24.63;;;13.73;;
25715;SDS011;13573;50.936;4.328;2023-04-08T14:44:23;26.30;;;14.33;;
25715;SDS011;13573;50.936;4.328;2023-04-08T14:46:49;28.03;;;15.10;;
25715;SDS011;13573;50.936;4.328;2023-04-08T14:49:16;23.77;;;14.47;;